createdAt,value
2024-02-18T00:00:00.889Z,9.23
2024-02-18T00:03:03.322Z,10.68
2024-02-18T00:06:05.993Z,10.38
2024-02-18T00:09:08.543Z,10.15
2024-02-18T00:12:10.988Z,10.32
2024-02-18T00:15:13.405Z,10.90
2024-02-18T00:18:16.499Z,10.43
2024-02-18T00:21:19.330Z,9.55
2024-02-18T00:24:22.206Z,10.07
2024-02-18T00:27:24.558Z,9.48
2024-02-18T00:30:27.883Z,8.95
2024-02-18T00:33:30.461Z,8.13
2024-02-18T00:36:33.218Z,8.85
2024-02-18T00:39:35.606Z,8.15
2024-02-18T00:42:38.263Z,6.82
2024-02-18T00:45:40.546Z,7.93
2024-02-18T00:48:43.361Z,7.60
2024-02-18T00:51:45.963Z,6.68
2024-02-18T00:54:48.616Z,7.20
2024-02-18T00:57:50.874Z,7.07
2024-02-18T01:00:53.462Z,7.53
2024-02-18T01:03:55.775Z,8.02
2024-02-18T01:06:58.402Z,7.35
2024-02-18T01:10:00.871Z,7.80
2024-02-18T01:13:03.645Z,8.65
2024-02-18T01:16:06.261Z,8.70
2024-02-18T01:19:08.995Z,8.05
2024-02-18T01:22:11.329Z,8.18
2024-02-18T01:25:13.986Z,8.40
2024-02-18T01:28:16.298Z,7.50
2024-02-18T01:31:18.844Z,8.48
2024-02-18T01:34:21.542Z,8.43
2024-02-18T01:37:24.391Z,8.85
2024-02-18T01:40:26.734Z,7.68
2024-02-18T01:43:29.376Z,7.90
2024-02-18T01:46:31.661Z,7.90
2024-02-18T01:49:34.924Z,8.88
2024-02-18T01:52:39.453Z,9.65
2024-02-18T01:55:43.877Z,11.10
2024-02-18T01:58:46.500Z,10.23
2024-02-18T02:01:49.480Z,12.68
2024-02-18T02:04:52.879Z,11.30
2024-02-18T02:07:55.626Z,12.13
2024-02-18T02:10:59.752Z,10.98
2024-02-18T02:14:03.209Z,11.77
2024-02-18T02:17:06.397Z,10.32
2024-02-18T02:20:12.701Z,7.87
2024-02-18T02:23:15.305Z,7.43
2024-02-18T02:26:21.403Z,7.35
2024-02-18T02:29:24.634Z,7.28
2024-02-18T02:32:26.968Z,6.97
2024-02-18T02:35:29.765Z,6.65
2024-02-18T02:38:33.672Z,7.32
2024-02-18T02:41:36.230Z,6.40
2024-02-18T02:44:38.501Z,5.78
2024-02-18T02:47:41.075Z,6.65
2024-02-18T02:50:43.322Z,6.05
2024-02-18T02:53:46.916Z,4.97
2024-02-18T02:56:49.066Z,6.07
2024-02-18T02:59:51.653Z,5.50
2024-02-18T03:02:53.890Z,5.70
2024-02-18T03:05:56.448Z,5.60
2024-02-18T03:08:58.695Z,5.95
2024-02-18T03:12:01.264Z,5.50
2024-02-18T03:15:03.901Z,5.65
2024-02-18T03:18:06.924Z,6.32
2024-02-18T03:21:11.400Z,6.35
2024-02-18T03:24:14.269Z,6.25
2024-02-18T03:27:16.704Z,6.18
2024-02-18T03:30:19.504Z,6.72
2024-02-18T03:33:21.899Z,5.53
2024-02-18T03:36:24.690Z,5.80
2024-02-18T03:39:27.045Z,5.37
2024-02-18T03:42:29.715Z,5.45
2024-02-18T03:45:32.139Z,6.30
2024-02-18T03:48:34.684Z,5.65
2024-02-18T03:51:37.028Z,5.60
2024-02-18T03:54:40.679Z,5.87
2024-02-18T03:57:43.806Z,6.05
2024-02-18T04:00:49.547Z,7.00
2024-02-18T04:03:52.160Z,7.37
2024-02-18T04:06:54.727Z,7.55
2024-02-18T04:09:57.255Z,7.35
2024-02-18T04:13:00.913Z,7.12
2024-02-18T04:16:04.384Z,7.47
2024-02-18T04:19:07.880Z,7.45
2024-02-18T04:22:10.681Z,7.18
2024-02-18T04:25:13.129Z,8.38
2024-02-18T04:28:15.666Z,8.38
2024-02-18T04:31:18.352Z,7.62
2024-02-18T04:34:21.032Z,8.57
2024-02-18T04:37:23.419Z,7.85
2024-02-18T04:40:26.904Z,8.13
2024-02-18T04:43:29.239Z,6.87
2024-02-18T04:46:31.914Z,7.72
2024-02-18T04:49:34.274Z,8.68
2024-02-18T04:52:39.082Z,8.43
2024-02-18T04:55:41.381Z,8.05
2024-02-18T04:58:44.004Z,8.38
2024-02-18T05:01:49.737Z,6.87
2024-02-18T05:04:52.760Z,6.62
2024-02-18T05:07:54.978Z,5.87
2024-02-18T05:10:58.500Z,5.78
2024-02-18T05:14:01.202Z,5.90
2024-02-18T05:17:04.797Z,6.53
2024-02-18T05:20:10.884Z,7.20
2024-02-18T05:23:13.810Z,10.35
2024-02-18T05:26:16.491Z,10.05
2024-02-18T05:29:19.146Z,10.80
2024-02-18T05:32:23.396Z,9.90
2024-02-18T05:35:26.275Z,9.30
2024-02-18T05:38:28.604Z,9.80
2024-02-18T05:41:31.127Z,9.75
2024-02-18T05:44:34.000Z,9.43
2024-02-18T05:47:36.592Z,9.73
2024-02-18T05:50:38.883Z,9.75
2024-02-18T05:53:41.420Z,9.38
2024-02-18T05:56:43.722Z,10.65
2024-02-18T05:59:46.428Z,9.80
2024-02-18T06:02:48.728Z,10.45
2024-02-18T06:05:51.816Z,10.60
2024-02-18T06:08:54.121Z,9.90
2024-02-18T06:11:56.718Z,10.13
2024-02-18T06:14:59.037Z,10.00
2024-02-18T06:18:01.824Z,10.82
2024-02-18T06:21:05.405Z,9.38
2024-02-18T06:24:07.936Z,9.90
2024-02-18T06:27:10.152Z,10.02
2024-02-18T06:30:13.541Z,10.50
2024-02-18T06:33:16.047Z,11.00
2024-02-18T06:36:18.645Z,11.30
2024-02-18T06:39:24.301Z,11.48
2024-02-18T06:42:28.369Z,11.20
2024-02-18T06:45:30.738Z,9.55
2024-02-18T06:48:33.577Z,10.15
2024-02-18T06:51:35.992Z,9.82
2024-02-18T06:54:38.606Z,9.77
2024-02-18T06:57:44.296Z,10.70
2024-02-18T07:00:47.124Z,8.55
2024-02-18T07:03:49.710Z,9.98
2024-02-18T07:06:52.321Z,10.13
2024-02-18T07:09:54.619Z,10.63
2024-02-18T07:12:57.404Z,9.75
2024-02-18T07:15:59.855Z,9.00
2024-02-18T07:19:02.581Z,8.82
2024-02-18T07:22:07.133Z,8.65
2024-02-18T07:25:11.171Z,7.47
2024-02-18T07:28:13.613Z,6.75
2024-02-18T07:31:18.212Z,7.55
2024-02-18T07:34:21.917Z,5.30
2024-02-18T07:37:24.760Z,5.20
2024-02-18T07:40:26.922Z,5.22
2024-02-18T07:43:29.668Z,4.37
2024-02-18T07:46:32.407Z,4.20
2024-02-18T07:49:34.968Z,4.28
2024-02-18T07:52:37.289Z,4.03
2024-02-18T07:55:40.183Z,4.20
2024-02-18T07:58:42.371Z,3.35
2024-02-18T08:01:46.565Z,3.55
2024-02-18T08:04:49.511Z,3.78
2024-02-18T08:07:51.875Z,4.22
2024-02-18T08:10:54.414Z,3.35
2024-02-18T08:13:56.738Z,3.10
2024-02-18T08:16:59.369Z,3.40
2024-02-18T08:20:01.825Z,3.65
2024-02-18T08:23:04.943Z,2.80
2024-02-18T08:26:08.937Z,3.17
2024-02-18T08:29:11.605Z,2.90
2024-02-18T08:32:13.787Z,3.83
2024-02-18T08:35:16.379Z,4.05
2024-02-18T08:38:18.693Z,4.25
2024-02-18T08:41:22.122Z,4.72
2024-02-18T08:44:24.467Z,4.43
2024-02-18T08:47:27.088Z,4.25
2024-02-18T08:50:31.592Z,4.43
2024-02-18T08:53:34.548Z,4.28
2024-02-18T08:56:36.774Z,4.85
2024-02-18T08:59:39.382Z,5.43
2024-02-18T09:02:41.643Z,4.65
2024-02-18T09:05:44.288Z,5.03
2024-02-18T09:08:46.607Z,5.10
2024-02-18T09:11:49.132Z,5.12
2024-02-18T09:14:51.489Z,5.00
2024-02-18T09:17:54.463Z,4.60
2024-02-18T09:20:57.190Z,4.15
2024-02-18T09:23:59.840Z,4.55
2024-02-18T09:27:02.077Z,4.93
2024-02-18T09:30:05.542Z,4.53
2024-02-18T09:33:08.732Z,4.30
2024-02-18T09:36:11.460Z,3.75
2024-02-18T09:39:13.778Z,3.85
2024-02-18T09:42:16.494Z,4.12
2024-02-18T09:45:27.271Z,5.30
2024-02-18T09:48:31.170Z,4.90
2024-02-18T09:51:35.329Z,5.10
2024-02-18T09:54:38.074Z,5.22
2024-02-18T09:57:40.446Z,5.87
2024-02-18T10:00:43.113Z,5.37
2024-02-18T10:03:46.125Z,6.32
2024-02-18T10:06:48.789Z,5.37
2024-02-18T10:09:52.345Z,5.80
2024-02-18T10:12:55.097Z,6.37
2024-02-18T10:16:00.274Z,6.70
2024-02-18T10:19:02.839Z,5.50
2024-02-18T10:22:07.204Z,6.00
2024-02-18T10:25:11.067Z,5.53
2024-02-18T10:28:16.684Z,5.68
2024-02-18T10:31:18.968Z,6.10
2024-02-18T10:34:21.996Z,6.45
2024-02-18T10:37:31.056Z,6.35
2024-02-18T10:40:39.962Z,6.72
2024-02-18T10:43:52.313Z,6.87
2024-02-18T10:46:56.472Z,6.75
2024-02-18T10:50:07.180Z,6.45
2024-02-18T10:53:26.613Z,6.43
2024-02-18T10:56:29.305Z,6.55
2024-02-18T10:59:42.412Z,6.22
2024-02-18T11:02:59.354Z,6.30
2024-02-18T11:06:02.894Z,7.18
2024-02-18T11:09:09.660Z,7.05
2024-02-18T11:12:14.807Z,8.10
2024-02-18T11:15:17.134Z,7.87
2024-02-18T11:18:21.851Z,7.75
2024-02-18T11:21:24.860Z,6.22
2024-02-18T11:24:28.377Z,6.70
2024-02-18T11:27:31.080Z,5.50
2024-02-18T11:30:33.964Z,6.82
2024-02-18T11:33:36.978Z,5.80
2024-02-18T11:36:39.615Z,5.87
2024-02-18T11:39:41.908Z,5.72
2024-02-18T11:42:46.018Z,5.50
2024-02-18T11:45:48.391Z,6.65
2024-02-18T11:48:52.123Z,5.30
2024-02-18T11:51:54.508Z,4.20
2024-02-18T11:54:57.181Z,5.25
2024-02-18T11:57:59.534Z,5.10
2024-02-18T12:01:04.922Z,5.43
2024-02-18T12:04:07.732Z,5.70
2024-02-18T12:07:11.284Z,6.03
2024-02-18T12:10:14.473Z,7.12
2024-02-18T12:13:16.876Z,8.40
2024-02-18T12:16:19.866Z,9.52
2024-02-18T12:19:22.387Z,9.00
2024-02-18T12:22:28.180Z,9.93
2024-02-18T12:25:37.008Z,8.85
2024-02-18T12:28:39.572Z,8.65
2024-02-18T12:31:44.593Z,9.75
2024-02-18T12:34:50.138Z,9.57
2024-02-18T12:37:52.558Z,8.48
2024-02-18T12:40:57.992Z,8.75
2024-02-18T12:44:40.626Z,8.07
2024-02-18T12:47:23.570Z,7.90
2024-02-18T12:50:29.204Z,8.32
2024-02-18T12:53:31.882Z,7.47
2024-02-18T12:56:34.197Z,8.10
2024-02-18T12:59:38.208Z,8.07
2024-02-18T13:02:41.801Z,7.40
2024-02-18T13:05:44.380Z,7.72
2024-02-18T13:08:46.747Z,8.60
2024-02-18T13:11:49.779Z,7.90
2024-02-18T13:14:52.476Z,8.73
2024-02-18T13:17:55.064Z,8.77
2024-02-18T13:20:57.377Z,9.55
2024-02-18T13:23:59.904Z,9.60
2024-02-18T13:27:02.351Z,8.98
2024-02-18T13:30:06.517Z,9.02
2024-02-18T13:33:09.039Z,8.20
2024-02-18T13:36:12.735Z,7.82
2024-02-18T13:39:18.589Z,8.10
2024-02-18T13:42:22.336Z,8.15
2024-02-18T13:45:25.567Z,8.50
2024-02-18T13:48:28.943Z,7.72
2024-02-18T13:51:34.092Z,8.40
2024-02-18T13:54:36.730Z,7.87
2024-02-18T13:57:39.064Z,7.57
2024-02-18T14:00:41.880Z,8.02
2024-02-18T14:03:45.800Z,8.00
2024-02-18T14:06:48.237Z,8.68
2024-02-18T14:09:50.879Z,9.10
2024-02-18T14:12:53.262Z,8.30
2024-02-18T14:15:56.958Z,8.63
2024-02-18T14:19:00.350Z,8.02
2024-02-18T14:22:03.091Z,9.10
2024-02-18T14:25:07.108Z,8.18
2024-02-18T14:28:12.749Z,9.00
2024-02-18T14:31:15.271Z,8.85
2024-02-18T14:34:18.124Z,9.00
2024-02-18T14:37:22.176Z,8.48
2024-02-18T14:40:25.554Z,9.82
2024-02-18T14:43:27.847Z,10.05
2024-02-18T14:46:30.418Z,10.07
2024-02-18T14:49:39.059Z,9.55
2024-02-18T14:52:47.402Z,10.18
2024-02-18T14:55:49.567Z,9.80
2024-02-18T14:58:52.189Z,10.43
2024-02-18T15:01:54.594Z,10.32
2024-02-18T15:04:57.318Z,10.68
2024-02-18T15:07:59.920Z,10.63
2024-02-18T15:11:02.510Z,10.32
2024-02-18T15:14:04.778Z,9.35
2024-02-18T15:17:10.549Z,9.93
2024-02-18T15:20:12.894Z,11.15
2024-02-18T15:23:15.637Z,9.75
2024-02-18T15:26:17.991Z,9.98
2024-02-18T15:29:20.615Z,10.00
2024-02-18T15:32:22.858Z,9.60
2024-02-18T15:35:25.431Z,10.57
2024-02-18T15:38:29.340Z,10.35
2024-02-18T15:41:31.958Z,10.00
2024-02-18T15:44:34.291Z,11.10
2024-02-18T15:47:36.734Z,10.13
2024-02-18T15:50:39.013Z,10.60
2024-02-18T15:53:42.238Z,11.12
2024-02-18T15:56:44.587Z,11.60
2024-02-18T15:59:47.327Z,11.35
2024-02-18T16:02:49.703Z,10.82
2024-02-18T16:05:52.504Z,11.85
2024-02-18T16:08:54.821Z,12.10
2024-02-18T16:11:57.440Z,12.85
2024-02-18T16:14:59.824Z,12.15
2024-02-18T16:18:02.526Z,12.73
2024-02-18T16:21:05.637Z,12.98
2024-02-18T16:24:08.256Z,12.90
2024-02-18T16:27:10.462Z,13.32
2024-02-18T16:30:16.879Z,13.75
2024-02-18T16:33:19.169Z,12.85
2024-02-18T16:36:22.166Z,13.40
2024-02-18T16:39:24.522Z,13.77
2024-02-18T16:42:29.644Z,13.45
2024-02-18T16:45:32.000Z,13.65
2024-02-18T16:48:37.295Z,13.68
2024-02-18T16:51:45.239Z,14.18
2024-02-18T16:54:48.646Z,14.25
2024-02-18T16:57:50.839Z,13.05
2024-02-18T17:00:53.804Z,12.93
2024-02-18T17:03:56.373Z,12.65
2024-02-18T17:06:59.247Z,14.27
2024-02-18T17:10:01.744Z,13.60
2024-02-18T17:13:07.557Z,14.60
2024-02-18T17:16:09.917Z,13.43
2024-02-18T17:19:12.608Z,14.38
2024-02-18T17:22:17.147Z,14.55
2024-02-18T17:25:19.873Z,14.15
2024-02-18T17:28:22.268Z,13.32
2024-02-18T17:31:26.621Z,14.43
2024-02-18T17:34:29.031Z,13.85
2024-02-18T17:37:32.492Z,13.25
2024-02-18T17:40:35.266Z,13.98
2024-02-18T17:43:37.921Z,13.60
2024-02-18T17:46:40.273Z,14.63
2024-02-18T17:49:42.925Z,14.52
2024-02-18T17:52:45.240Z,14.65
2024-02-18T17:55:48.894Z,15.40
2024-02-18T17:58:51.280Z,15.20
2024-02-18T18:01:54.336Z,15.70
2024-02-18T18:04:57.196Z,15.80
2024-02-18T18:07:59.446Z,15.05
2024-02-18T18:11:03.914Z,15.80
2024-02-18T18:14:06.935Z,13.98
2024-02-18T18:17:09.660Z,12.02
2024-02-18T18:20:12.299Z,12.55
2024-02-18T18:23:14.800Z,13.88
2024-02-18T18:26:17.070Z,13.07
2024-02-18T18:29:19.735Z,12.50
2024-02-18T18:32:22.033Z,12.05
2024-02-18T18:35:24.784Z,13.43
2024-02-18T18:38:29.097Z,12.45
2024-02-18T18:41:35.381Z,13.75
2024-02-18T18:44:39.546Z,12.90
2024-02-18T18:47:42.285Z,11.60
2024-02-18T18:50:45.698Z,11.73
2024-02-18T18:53:48.192Z,12.77
2024-02-18T18:56:50.397Z,12.37
2024-02-18T18:59:52.957Z,11.65
2024-02-18T19:02:56.202Z,12.48
2024-02-18T19:05:58.890Z,12.93
2024-02-18T19:09:04.164Z,12.68
2024-02-18T19:12:08.143Z,13.05
2024-02-18T19:15:11.417Z,12.15
2024-02-18T19:18:14.018Z,12.73
2024-02-18T19:21:17.350Z,12.32
2024-02-18T19:24:19.960Z,12.75
2024-02-18T19:27:25.523Z,11.57
2024-02-18T19:30:28.142Z,11.38
2024-02-18T19:33:30.535Z,10.68
2024-02-18T19:36:34.463Z,11.60
2024-02-18T19:39:36.818Z,11.05
2024-02-18T19:42:39.410Z,10.88
2024-02-18T19:45:41.727Z,10.43
2024-02-18T19:48:44.514Z,9.60
2024-02-18T19:51:47.859Z,10.80
2024-02-18T19:54:50.584Z,11.12
2024-02-18T19:57:52.864Z,10.77
2024-02-18T20:00:56.985Z,11.82
2024-02-18T20:03:59.684Z,10.35
2024-02-18T20:07:02.393Z,10.93
2024-02-18T20:10:05.359Z,11.45
2024-02-18T20:13:07.660Z,10.95
2024-02-18T20:16:10.738Z,11.40
2024-02-18T20:19:15.787Z,11.55
2024-02-18T20:22:19.058Z,11.20
2024-02-18T20:25:22.147Z,12.98
2024-02-18T20:28:24.819Z,11.55
2024-02-18T20:31:27.085Z,11.85
2024-02-18T20:34:29.997Z,11.75
2024-02-18T20:37:32.320Z,11.45
2024-02-18T20:40:34.841Z,11.50
2024-02-18T20:43:37.415Z,13.55
2024-02-18T20:46:39.983Z,12.02
2024-02-18T20:49:42.315Z,13.13
2024-02-18T20:52:44.884Z,12.23
2024-02-18T20:55:47.417Z,13.50
2024-02-18T20:58:50.014Z,13.05
2024-02-18T21:01:52.788Z,12.90
2024-02-18T21:04:55.666Z,12.07
2024-02-18T21:08:00.008Z,12.20
2024-02-18T21:11:03.301Z,12.70
2024-02-18T21:14:05.647Z,11.60
2024-02-18T21:17:08.223Z,11.70
2024-02-18T21:20:11.607Z,12.50
2024-02-18T21:23:14.172Z,11.93
2024-02-18T21:26:22.930Z,12.35
2024-02-18T21:29:25.574Z,10.95
2024-02-18T21:32:27.816Z,11.98
2024-02-18T21:35:30.449Z,11.40
2024-02-18T21:38:32.697Z,10.93
2024-02-18T21:41:35.234Z,10.98
2024-02-18T21:44:37.503Z,11.88
2024-02-18T21:47:40.116Z,11.02
2024-02-18T21:50:42.364Z,12.18
2024-02-18T21:53:45.754Z,11.25
2024-02-18T21:56:47.953Z,12.68
2024-02-18T21:59:50.633Z,11.40
2024-02-18T22:02:52.811Z,10.82
2024-02-18T22:05:55.363Z,10.98
2024-02-18T22:08:57.728Z,12.05
2024-02-18T22:12:00.187Z,11.90
2024-02-18T22:15:02.931Z,12.10
2024-02-18T22:18:06.420Z,11.02
2024-02-18T22:21:08.715Z,10.65
2024-02-18T22:24:11.253Z,11.35
2024-02-18T22:27:13.635Z,12.02
2024-02-18T22:30:17.199Z,11.88
2024-02-18T22:33:19.634Z,11.75
2024-02-18T22:36:22.297Z,11.10
2024-02-18T22:39:24.583Z,11.25
2024-02-18T22:42:27.144Z,10.77
2024-02-18T22:45:30.530Z,11.45
2024-02-18T22:48:33.610Z,13.18
2024-02-18T22:51:36.367Z,17.00
2024-02-18T22:54:38.974Z,14.82
2024-02-18T22:57:41.413Z,12.98
2024-02-18T23:00:44.661Z,13.77
2024-02-18T23:03:47.090Z,14.87
2024-02-18T23:06:49.694Z,16.37
2024-02-18T23:09:52.146Z,16.60
2024-02-18T23:12:54.775Z,16.15
2024-02-18T23:15:57.251Z,17.55
2024-02-18T23:19:00.774Z,19.60
2024-02-18T23:22:03.140Z,17.45
2024-02-18T23:25:06.089Z,18.00
2024-02-18T23:28:08.656Z,15.38
2024-02-18T23:31:11.232Z,16.12
2024-02-18T23:34:13.654Z,15.82
2024-02-18T23:37:16.435Z,15.27
2024-02-18T23:40:19.098Z,15.38
2024-02-18T23:43:22.194Z,15.20
2024-02-18T23:46:24.519Z,14.98
2024-02-18T23:49:27.550Z,15.20
2024-02-18T23:52:29.751Z,15.32
2024-02-18T23:55:32.201Z,14.15
2024-02-18T23:58:34.629Z,13.68
